sensor_id;sensor_type;location;lat;lon;timestamp;pressure;altitude;pressure_sealevel;temperature
45701;BMP280;36277;32.852;-116.998;2023-02-13T00:02:22;99637.78;;;23.55
45701;BMP280;36277;32.852;-116.998;2023-02-13T00:04:48;99642.22;;;23.56
45701;BMP280;36277;32.852;-116.998;2023-02-13T00:07:14;99629.50;;;23.55
45701;BMP280;36277;32.852;-116.998;2023-02-13T00:09:41;99636.94;;;23.55
45701;BMP280;36277;32.852;-116.998;2023-02-13T00:12:07;99631.22;;;23.56
45701;BMP280;36277;32.852;-116.998;2023-02-13T00:14:38;99632.06;;;23.57
45701;BMP280;36277;32.852;-116.998;2023-02-13T00:17:05;99632.06;;;23.57
45701;BMP280;36277;32.852;-116.998;2023-02-13T00:19:32;99633.75;;;23.58
45701;BMP280;36277;32.852;-116.998;2023-02-13T00:21:58;99635.00;;;23.55
45701;BMP280;36277;32.852;-116.998;2023-02-13T00:24:25;99635.44;;;23.59
45701;BMP280;36277;32.852;-116.998;2023-02-13T00:26:51;99637.16;;;23.60
45701;BMP280;36277;32.852;-116.998;2023-02-13T00:29:17;99646.91;;;23.56
45701;BMP280;36277;32.852;-116.998;2023-02-13T00:31:44;99649.03;;;23.60
45701;BMP280;36277;32.852;-116.998;2023-02-13T00:34:10;99642.66;;;23.60
45701;BMP280;36277;32.852;-116.998;2023-02-13T00:36:40;99652.59;;;23.54
45701;BMP280;36277;32.852;-116.998;2023-02-13T00:39:10;99647.34;;;23.59
45701;BMP280;36277;32.852;-116.998;2023-02-13T00:41:37;99642.66;;;23.60
45701;BMP280;36277;32.852;-116.998;2023-02-13T00:44:04;99647.75;;;23.56
45701;BMP280;36277;32.852;-116.998;2023-02-13T00:46:30;99643.91;;;23.51
45701;BMP280;36277;32.852;-116.998;2023-02-13T00:48:59;99636.88;;;23.48
45701;BMP280;36277;32.852;-116.998;2023-02-13T00:51:26;99655.94;;;23.43
45701;BMP280;36277;32.852;-116.998;2023-02-13T00:53:52;99644.47;;;23.46
45701;BMP280;36277;32.852;-116.998;2023-02-13T00:56:18;99646.44;;;23.52
45701;BMP280;36277;32.852;-116.998;2023-02-13T00:58:45;99643.91;;;23.51
45701;BMP280;36277;32.852;-116.998;2023-02-13T01:01:11;99643.50;;;23.54
45701;BMP280;36277;32.852;-116.998;2023-02-13T01:03:38;99644.34;;;23.54
45701;BMP280;36277;32.852;-116.998;2023-02-13T01:06:05;99643.50;;;23.54
45701;BMP280;36277;32.852;-116.998;2023-02-13T01:08:32;99647.09;;;23.54
45701;BMP280;36277;32.852;-116.998;2023-02-13T01:10:59;99650.44;;;23.50
45701;BMP280;36277;32.852;-116.998;2023-02-13T01:13:26;99641.31;;;23.49
45701;BMP280;36277;32.852;-116.998;2023-02-13T01:15:52;99659.56;;;23.50
45701;BMP280;36277;32.852;-116.998;2023-02-13T01:18:19;99667.41;;;23.53
45701;BMP280;36277;32.852;-116.998;2023-02-13T01:20:58;99675.69;;;23.53
45701;BMP280;36277;32.852;-116.998;2023-02-13T01:23:29;99674.84;;;23.53
45701;BMP280;36277;32.852;-116.998;2023-02-13T01:25:56;99669.75;;;23.50
45701;BMP280;36277;32.852;-116.998;2023-02-13T01:28:22;99676.56;;;23.54
45701;BMP280;36277;32.852;-116.998;2023-02-13T01:30:53;99674.44;;;23.56
45701;BMP280;36277;32.852;-116.998;2023-02-13T01:33:21;99681.19;;;23.53
45701;BMP280;36277;32.852;-116.998;2023-02-13T01:35:48;99674.84;;;23.53
45701;BMP280;36277;32.852;-116.998;2023-02-13T01:38:14;99682.25;;;23.52
45701;BMP280;36277;32.852;-116.998;2023-02-13T01:40:48;99680.78;;;23.56
45701;BMP280;36277;32.852;-116.998;2023-02-13T01:43:15;99685.88;;;23.53
45701;BMP280;36277;32.852;-116.998;2023-02-13T01:45:42;99693.00;;;23.47
45701;BMP280;36277;32.852;-116.998;2023-02-13T01:48:24;99684.34;;;23.50
45701;BMP280;36277;32.852;-116.998;2023-02-13T01:51:06;99689.19;;;23.48
45701;BMP280;36277;32.852;-116.998;2023-02-13T01:53:49;99695.56;;;23.49
45701;BMP280;36277;32.852;-116.998;2023-02-13T01:56:28;99691.28;;;23.46
45701;BMP280;36277;32.852;-116.998;2023-02-13T01:59:00;99693.44;;;23.44
45701;BMP280;36277;32.852;-116.998;2023-02-13T02:01:28;99704.22;;;23.46
45701;BMP280;36277;32.852;-116.998;2023-02-13T02:04:07;99701.91;;;23.49
45701;BMP280;36277;32.852;-116.998;2023-02-13T02:06:48;99695.97;;;23.46
45701;BMP280;36277;32.852;-116.998;2023-02-13T02:09:21;99695.09;;;23.45
45701;BMP280;36277;32.852;-116.998;2023-02-13T02:14:21;99700.13;;;23.35
45701;BMP280;36277;32.852;-116.998;2023-02-13T02:16:47;99697.56;;;23.34
45701;BMP280;36277;32.852;-116.998;2023-02-13T02:25:20;99702.88;;;23.35
45701;BMP280;36277;32.852;-116.998;2023-02-13T02:30:54;99705.25;;;23.38
45701;BMP280;36277;32.852;-116.998;2023-02-13T02:47:24;99713.63;;;23.30
45701;BMP280;36277;32.852;-116.998;2023-02-13T02:55:42;99718.94;;;23.32
45701;BMP280;36277;32.852;-116.998;2023-02-13T02:58:23;99720.84;;;23.31
45701;BMP280;36277;32.852;-116.998;2023-02-13T03:01:17;99726.34;;;23.31
45701;BMP280;36277;32.852;-116.998;2023-02-13T03:04:03;99728.44;;;23.29
45701;BMP280;36277;32.852;-116.998;2023-02-13T03:06:53;99725.44;;;23.24
45701;BMP280;36277;32.852;-116.998;2023-02-13T03:09:28;99737.38;;;23.31
45701;BMP280;36277;32.852;-116.998;2023-02-13T03:12:19;99744.56;;;23.32
45701;BMP280;36277;32.852;-116.998;2023-02-13T03:15:06;99743.25;;;23.28
45701;BMP280;36277;32.852;-116.998;2023-02-13T03:17:33;99742.88;;;23.31
45701;BMP280;36277;32.852;-116.998;2023-02-13T03:20:31;99737.97;;;23.27
45701;BMP280;36277;32.852;-116.998;2023-02-13T03:34:51;99744.38;;;23.34
45701;BMP280;36277;32.852;-116.998;2023-02-13T03:37:42;99749.22;;;23.32
45701;BMP280;36277;32.852;-116.998;2023-02-13T03:43:38;99767.22;;;23.28
45701;BMP280;36277;32.852;-116.998;2023-02-13T03:46:08;99777.56;;;23.26
45701;BMP280;36277;32.852;-116.998;2023-02-13T03:48:37;99783.06;;;23.26
45701;BMP280;36277;32.852;-116.998;2023-02-13T03:51:37;99790.47;;;23.25
45701;BMP280;36277;32.852;-116.998;2023-02-13T03:54:11;99788.91;;;23.16
45701;BMP280;36277;32.852;-116.998;2023-02-13T03:56:43;99793.84;;;23.06
45701;BMP280;36277;32.852;-116.998;2023-02-13T03:59:31;99792.13;;;23.05
45701;BMP280;36277;32.852;-116.998;2023-02-13T04:02:11;99800.47;;;23.12
45701;BMP280;36277;32.852;-116.998;2023-02-13T04:04:53;99806.47;;;23.15
45701;BMP280;36277;32.852;-116.998;2023-02-13T04:07:24;99799.81;;;23.10
45701;BMP280;36277;32.852;-116.998;2023-02-13T04:10:10;99798.22;;;23.15
45701;BMP280;36277;32.852;-116.998;2023-02-13T04:18:03;99800.09;;;23.15
45701;BMP280;36277;32.852;-116.998;2023-02-13T04:20:36;99802.41;;;23.11
45701;BMP280;36277;32.852;-116.998;2023-02-13T04:23:05;99799.81;;;23.10
45701;BMP280;36277;32.852;-116.998;2023-02-13T04:25:32;99805.16;;;23.11
45701;BMP280;36277;32.852;-116.998;2023-02-13T04:27:59;99807.41;;;23.08
45701;BMP280;36277;32.852;-116.998;2023-02-13T04:30:25;99812.94;;;23.08
45701;BMP280;36277;32.852;-116.998;2023-02-13T04:32:52;99813.78;;;23.08
45701;BMP280;36277;32.852;-116.998;2023-02-13T04:35:18;99813.78;;;23.08
45701;BMP280;36277;32.852;-116.998;2023-02-13T04:37:44;99812.09;;;23.07
45701;BMP280;36277;32.852;-116.998;2023-02-13T04:40:11;99805.06;;;23.05
45701;BMP280;36277;32.852;-116.998;2023-02-13T04:42:37;99804.84;;;23.06
45701;BMP280;36277;32.852;-116.998;2023-02-13T04:45:03;99799.06;;;23.01
45701;BMP280;36277;32.852;-116.998;2023-02-13T04:47:30;99804.13;;;22.98
45701;BMP280;36277;32.852;-116.998;2023-02-13T04:49:56;99807.25;;;22.95
45701;BMP280;36277;32.852;-116.998;2023-02-13T04:52:22;99796.91;;;22.97
45701;BMP280;36277;32.852;-116.998;2023-02-13T04:54:48;99803.38;;;22.90
45701;BMP280;36277;32.852;-116.998;2023-02-13T04:57:15;99815.72;;;22.94
45701;BMP280;36277;32.852;-116.998;2023-02-13T04:59:41;99817.88;;;22.98
45701;BMP280;36277;32.852;-116.998;2023-02-13T05:02:07;99814.91;;;22.99
45701;BMP280;36277;32.852;-116.998;2023-02-13T05:04:33;99817.66;;;22.99
45701;BMP280;36277;32.852;-116.998;2023-02-13T05:07:00;99816.16;;;22.97
45701;BMP280;36277;32.852;-116.998;2023-02-13T05:09:26;99830.31;;;22.94
45701;BMP280;36277;32.852;-116.998;2023-02-13T05:11:53;99832.88;;;22.96
45701;BMP280;36277;32.852;-116.998;2023-02-13T05:14:20;99834.97;;;22.94
45701;BMP280;36277;32.852;-116.998;2023-02-13T05:16:46;99833.06;;;22.94
45701;BMP280;36277;32.852;-116.998;2023-02-13T05:19:15;99832.63;;;22.91
45701;BMP280;36277;32.852;-116.998;2023-02-13T05:21:41;99829.19;;;22.89
45701;BMP280;36277;32.852;-116.998;2023-02-13T05:24:26;99830.13;;;22.81
45701;BMP280;36277;32.852;-116.998;2023-02-13T05:26:52;99831.00;;;22.82
45701;BMP280;36277;32.852;-116.998;2023-02-13T05:29:19;99813.84;;;22.80
45701;BMP280;36277;32.852;-116.998;2023-02-13T05:31:52;99821.88;;;22.81
45701;BMP280;36277;32.852;-116.998;2023-02-13T05:34:20;99824.38;;;22.76
45701;BMP280;36277;32.852;-116.998;2023-02-13T05:36:46;99834.34;;;22.77
45701;BMP280;36277;32.852;-116.998;2023-02-13T05:39:13;99829.22;;;22.74
45701;BMP280;36277;32.852;-116.998;2023-02-13T05:41:41;99831.09;;;22.74
45701;BMP280;36277;32.852;-116.998;2023-02-13T05:44:08;99818.41;;;22.73
45701;BMP280;36277;32.852;-116.998;2023-02-13T05:46:36;99829.41;;;22.73
45701;BMP280;36277;32.852;-116.998;2023-02-13T05:49:03;99821.72;;;22.68
45701;BMP280;36277;32.852;-116.998;2023-02-13T05:51:30;99827.63;;;22.65
45701;BMP280;36277;32.852;-116.998;2023-02-13T05:53:56;99823.34;;;22.63
45701;BMP280;36277;32.852;-116.998;2023-02-13T05:56:23;99829.69;;;22.63
45701;BMP280;36277;32.852;-116.998;2023-02-13T05:58:53;99831.41;;;22.64
45701;BMP280;36277;32.852;-116.998;2023-02-13T06:01:20;99824.41;;;22.62
45701;BMP280;36277;32.852;-116.998;2023-02-13T06:03:46;99824.97;;;22.57
45701;BMP280;36277;32.852;-116.998;2023-02-13T06:06:13;99828.56;;;22.58
45701;BMP280;36277;32.852;-116.998;2023-02-13T06:08:39;99820.91;;;22.53
45701;BMP280;36277;32.852;-116.998;2023-02-13T06:11:06;99820.69;;;22.55
45701;BMP280;36277;32.852;-116.998;2023-02-13T06:13:33;99816.44;;;22.52
45701;BMP280;36277;32.852;-116.998;2023-02-13T06:15:59;99812.81;;;22.52
45701;BMP280;36277;32.852;-116.998;2023-02-13T06:18:25;99816.25;;;22.54
45701;BMP280;36277;32.852;-116.998;2023-02-13T06:20:51;99807.34;;;22.52
45701;BMP280;36277;32.852;-116.998;2023-02-13T06:23:18;99804.59;;;22.52
45701;BMP280;36277;32.852;-116.998;2023-02-13T06:25:44;99814.75;;;22.51
45701;BMP280;36277;32.852;-116.998;2023-02-13T06:28:10;99817.66;;;22.50
45701;BMP280;36277;32.852;-116.998;2023-02-13T06:30:37;99824.22;;;22.49
45701;BMP280;36277;32.852;-116.998;2023-02-13T06:33:03;99810.47;;;22.49
45701;BMP280;36277;32.852;-116.998;2023-02-13T06:35:29;99815.97;;;22.49
45701;BMP280;36277;32.852;-116.998;2023-02-13T06:37:55;99806.00;;;22.48
45701;BMP280;36277;32.852;-116.998;2023-02-13T06:40:22;99791.59;;;22.46
45701;BMP280;36277;32.852;-116.998;2023-02-13T06:42:48;99798.34;;;22.43
45701;BMP280;36277;32.852;-116.998;2023-02-13T06:45:15;99791.78;;;22.44
45701;BMP280;36277;32.852;-116.998;2023-02-13T06:47:45;99785.84;;;22.41
45701;BMP280;36277;32.852;-116.998;2023-02-13T06:50:13;99792.38;;;22.40
45701;BMP280;36277;32.852;-116.998;2023-02-13T06:52:48;99801.28;;;22.42
45701;BMP280;36277;32.852;-116.998;2023-02-13T06:55:15;99793.78;;;22.36
45701;BMP280;36277;32.852;-116.998;2023-02-13T06:57:43;99797.06;;;22.31
45701;BMP280;36277;32.852;-116.998;2023-02-13T07:00:10;99801.38;;;22.34
45701;BMP280;36277;32.852;-116.998;2023-02-13T07:02:42;99795.88;;;22.34
45701;BMP280;36277;32.852;-116.998;2023-02-13T07:05:10;99786.66;;;22.27
45701;BMP280;36277;32.852;-116.998;2023-02-13T07:07:38;99778.03;;;22.30
45701;BMP280;36277;32.852;-116.998;2023-02-13T07:10:06;99767.41;;;22.27
45701;BMP280;36277;32.852;-116.998;2023-02-13T07:12:33;99759.72;;;22.22
45701;BMP280;36277;32.852;-116.998;2023-02-13T07:15:02;99779.16;;;22.21
45701;BMP280;36277;32.852;-116.998;2023-02-13T07:17:28;99790.53;;;22.18
45701;BMP280;36277;32.852;-116.998;2023-02-13T07:19:56;99793.09;;;22.19
45701;BMP280;36277;32.852;-116.998;2023-02-13T07:22:22;99807.88;;;22.18
45701;BMP280;36277;32.852;-116.998;2023-02-13T07:24:48;99780.78;;;22.15
45701;BMP280;36277;32.852;-116.998;2023-02-13T07:27:14;99765.16;;;22.16
45701;BMP280;36277;32.852;-116.998;2023-02-13T07:29:41;99787.69;;;22.11
45701;BMP280;36277;32.852;-116.998;2023-02-13T07:32:07;99807.59;;;22.13
45701;BMP280;36277;32.852;-116.998;2023-02-13T07:34:33;99798.50;;;22.13
45701;BMP280;36277;32.852;-116.998;2023-02-13T07:37:00;99786.63;;;22.12
45701;BMP280;36277;32.852;-116.998;2023-02-13T07:39:26;99776.03;;;22.09
45701;BMP280;36277;32.852;-116.998;2023-02-13T07:41:52;99795.09;;;22.11
45701;BMP280;36277;32.852;-116.998;2023-02-13T07:44:18;99811.75;;;22.09
45701;BMP280;36277;32.852;-116.998;2023-02-13T07:46:44;99806.09;;;22.11
45701;BMP280;36277;32.852;-116.998;2023-02-13T07:49:11;99798.69;;;22.11
45701;BMP280;36277;32.852;-116.998;2023-02-13T07:51:37;99800.97;;;22.08
45701;BMP280;36277;32.852;-116.998;2023-02-13T07:54:03;99806.63;;;22.06
45701;BMP280;36277;32.852;-116.998;2023-02-13T07:56:29;99798.38;;;22.06
45701;BMP280;36277;32.852;-116.998;2023-02-13T07:58:56;99797.53;;;22.06
45701;BMP280;36277;32.852;-116.998;2023-02-13T08:01:22;99796.50;;;22.07
45701;BMP280;36277;32.852;-116.998;2023-02-13T08:03:49;99802.00;;;22.07
45701;BMP280;36277;32.852;-116.998;2023-02-13T08:06:16;99796.03;;;22.03
45701;BMP280;36277;32.852;-116.998;2023-02-13T08:08:43;99806.16;;;22.03
45701;BMP280;36277;32.852;-116.998;2023-02-13T08:11:26;99812.31;;;22.05
45701;BMP280;36277;32.852;-116.998;2023-02-13T08:14:12;99817.22;;;21.95
45701;BMP280;36277;32.852;-116.998;2023-02-13T08:16:38;99809.84;;;21.95
45701;BMP280;36277;32.852;-116.998;2023-02-13T08:19:04;99822.56;;;21.96
45701;BMP280;36277;32.852;-116.998;2023-02-13T08:21:30;99812.78;;;21.94
45701;BMP280;36277;32.852;-116.998;2023-02-13T08:23:57;99818.47;;;21.92
45701;BMP280;36277;32.852;-116.998;2023-02-13T08:26:23;99822.47;;;21.90
45701;BMP280;36277;32.852;-116.998;2023-02-13T08:28:49;99827.75;;;21.91
45701;BMP280;36277;32.852;-116.998;2023-02-13T08:31:16;99841.69;;;21.90
45701;BMP280;36277;32.852;-116.998;2023-02-13T08:33:42;99846.50;;;21.88
45701;BMP280;36277;32.852;-116.998;2023-02-13T08:36:08;99831.75;;;21.89
45701;BMP280;36277;32.852;-116.998;2023-02-13T08:38:34;99815.78;;;21.85
45701;BMP280;36277;32.852;-116.998;2023-02-13T08:41:01;99793.34;;;21.81
45701;BMP280;36277;32.852;-116.998;2023-02-13T08:43:27;99779.63;;;21.81
45701;BMP280;36277;32.852;-116.998;2023-02-13T08:45:56;99774.13;;;21.81
45701;BMP280;36277;32.852;-116.998;2023-02-13T08:48:22;99762.47;;;21.79
45701;BMP280;36277;32.852;-116.998;2023-02-13T08:50:48;99770.91;;;21.78
45701;BMP280;36277;32.852;-116.998;2023-02-13T08:53:15;99769.38;;;21.75
45701;BMP280;36277;32.852;-116.998;2023-02-13T08:55:41;99750.34;;;21.74
45701;BMP280;36277;32.852;-116.998;2023-02-13T08:58:07;99743.13;;;21.73
45701;BMP280;36277;32.852;-116.998;2023-02-13T09:00:34;99741.31;;;21.80
45701;BMP280;36277;32.852;-116.998;2023-02-13T09:03:01;99739.75;;;21.85
45701;BMP280;36277;32.852;-116.998;2023-02-13T09:05:28;99736.50;;;21.96
45701;BMP280;36277;32.852;-116.998;2023-02-13T09:07:59;99742.59;;;22.06
45701;BMP280;36277;32.852;-116.998;2023-02-13T09:10:27;99759.66;;;22.16
45701;BMP280;36277;32.852;-116.998;2023-02-13T09:12:54;99773.94;;;22.26
45701;BMP280;36277;32.852;-116.998;2023-02-13T09:15:20;99785.72;;;22.34
45701;BMP280;36277;32.852;-116.998;2023-02-13T09:17:46;99790.09;;;22.43
45701;BMP280;36277;32.852;-116.998;2023-02-13T09:20:13;99797.00;;;22.54
45701;BMP280;36277;32.852;-116.998;2023-02-13T09:22:40;99801.34;;;22.63
45701;BMP280;36277;32.852;-116.998;2023-02-13T09:25:07;99798.41;;;22.64
45701;BMP280;36277;32.852;-116.998;2023-02-13T09:27:34;99804.28;;;22.61
45701;BMP280;36277;32.852;-116.998;2023-02-13T09:30:01;99807.25;;;22.60
45701;BMP280;36277;32.852;-116.998;2023-02-13T09:32:27;99809.31;;;22.58
45701;BMP280;36277;32.852;-116.998;2023-02-13T09:34:54;99799.56;;;22.55
45701;BMP280;36277;32.852;-116.998;2023-02-13T09:37:20;99786.88;;;22.54
45701;BMP280;36277;32.852;-116.998;2023-02-13T09:39:47;99786.19;;;22.52
45701;BMP280;36277;32.852;-116.998;2023-02-13T09:42:32;99795.75;;;22.56
45701;BMP280;36277;32.852;-116.998;2023-02-13T09:45:04;99795.50;;;22.51
45701;BMP280;36277;32.852;-116.998;2023-02-13T09:47:35;99785.53;;;22.50
45701;BMP280;36277;32.852;-116.998;2023-02-13T09:50:15;99773.50;;;22.51
45701;BMP280;36277;32.852;-116.998;2023-02-13T09:52:45;99763.41;;;22.44
45701;BMP280;36277;32.852;-116.998;2023-02-13T09:55:18;99751.38;;;22.45
45701;BMP280;36277;32.852;-116.998;2023-02-13T10:01:04;99755.31;;;22.36
45701;BMP280;36277;32.852;-116.998;2023-02-13T10:21:52;99674.22;;;22.32
45701;BMP280;36277;32.852;-116.998;2023-02-13T10:24:41;99689.00;;;22.31
45701;BMP280;36277;32.852;-116.998;2023-02-13T10:27:19;99699.34;;;22.29
45701;BMP280;36277;32.852;-116.998;2023-02-13T10:37:50;99666.00;;;22.17
45701;BMP280;36277;32.852;-116.998;2023-02-13T10:40:18;99710.56;;;22.13
45701;BMP280;36277;32.852;-116.998;2023-02-13T10:42:50;99734.25;;;22.14
45701;BMP280;36277;32.852;-116.998;2023-02-13T10:51:07;99669.72;;;22.10
45701;BMP280;36277;32.852;-116.998;2023-02-13T10:53:59;99678.34;;;22.07
45701;BMP280;36277;32.852;-116.998;2023-02-13T11:04:59;99708.66;;;21.99
45701;BMP280;36277;32.852;-116.998;2023-02-13T11:07:28;99707.31;;;21.95
45701;BMP280;36277;32.852;-116.998;2023-02-13T11:09:59;99710.75;;;21.97
45701;BMP280;36277;32.852;-116.998;2023-02-13T11:12:32;99713.84;;;21.94
45701;BMP280;36277;32.852;-116.998;2023-02-13T11:15:05;99712.16;;;21.93
45701;BMP280;36277;32.852;-116.998;2023-02-13T11:17:36;99715.78;;;21.93
45701;BMP280;36277;32.852;-116.998;2023-02-13T11:22:48;99710.19;;;21.87
45701;BMP280;36277;32.852;-116.998;2023-02-13T11:25:21;99704.31;;;21.90
45701;BMP280;36277;32.852;-116.998;2023-02-13T11:27:50;99689.91;;;21.88
45701;BMP280;36277;32.852;-116.998;2023-02-13T11:33:00;99680.63;;;21.89
45701;BMP280;36277;32.852;-116.998;2023-02-13T11:35:35;99679.97;;;21.87
45701;BMP280;36277;32.852;-116.998;2023-02-13T11:40:45;99672.47;;;21.81
45701;BMP280;36277;32.852;-116.998;2023-02-13T11:43:28;99668.31;;;21.85
45701;BMP280;36277;32.852;-116.998;2023-02-13T11:48:35;99677.22;;;21.73
45701;BMP280;36277;32.852;-116.998;2023-02-13T11:51:01;99673.22;;;21.75
45701;BMP280;36277;32.852;-116.998;2023-02-13T11:53:35;99679.75;;;21.74
45701;BMP280;36277;32.852;-116.998;2023-02-13T11:58:34;99691.41;;;21.76
45701;BMP280;36277;32.852;-116.998;2023-02-13T12:04:03;99679.38;;;21.91
45701;BMP280;36277;32.852;-116.998;2023-02-13T12:06:31;99665.94;;;21.96
45701;BMP280;36277;32.852;-116.998;2023-02-13T12:09:11;99656.34;;;22.07
45701;BMP280;36277;32.852;-116.998;2023-02-13T12:14:04;99675.34;;;22.23
45701;BMP280;36277;32.852;-116.998;2023-02-13T12:16:48;99691.19;;;22.35
45701;BMP280;36277;32.852;-116.998;2023-02-13T12:19:38;99709.28;;;22.44
45701;BMP280;36277;32.852;-116.998;2023-02-13T12:25:00;99716.47;;;22.60
45701;BMP280;36277;32.852;-116.998;2023-02-13T12:30:27;99746.06;;;22.58
45701;BMP280;36277;32.852;-116.998;2023-02-13T12:33:15;99741.22;;;22.60
45701;BMP280;36277;32.852;-116.998;2023-02-13T12:47:28;99747.41;;;22.47
45701;BMP280;36277;32.852;-116.998;2023-02-13T12:55:27;99748.84;;;22.43
45701;BMP280;36277;32.852;-116.998;2023-02-13T13:01:19;99738.81;;;22.36
45701;BMP280;36277;32.852;-116.998;2023-02-13T13:04:51;99762.88;;;22.34
45701;BMP280;36277;32.852;-116.998;2023-02-13T13:15:32;99751.50;;;22.22
45701;BMP280;36277;32.852;-116.998;2023-02-13T13:26:43;99784.09;;;22.11
45701;BMP280;36277;32.852;-116.998;2023-02-13T13:29:18;99785.22;;;22.16
45701;BMP280;36277;32.852;-116.998;2023-02-13T13:31:51;99790.94;;;22.15
45701;BMP280;36277;32.852;-116.998;2023-02-13T13:34:22;99788.34;;;22.13
45701;BMP280;36277;32.852;-116.998;2023-02-13T13:39:28;99784.94;;;22.11
45701;BMP280;36277;32.852;-116.998;2023-02-13T13:42:11;99790.44;;;22.11
45701;BMP280;36277;32.852;-116.998;2023-02-13T13:44:57;99785.31;;;22.08
45701;BMP280;36277;32.852;-116.998;2023-02-13T13:47:39;99785.69;;;22.05
45701;BMP280;36277;32.852;-116.998;2023-02-13T13:50:31;99796.69;;;22.05
45701;BMP280;36277;32.852;-116.998;2023-02-13T13:53:12;99797.25;;;22.01
45701;BMP280;36277;32.852;-116.998;2023-02-13T13:58:35;99800.38;;;21.98
45701;BMP280;36277;32.852;-116.998;2023-02-13T14:01:23;99802.81;;;21.93
45701;BMP280;36277;32.852;-116.998;2023-02-13T14:03:57;99809.09;;;21.87
45701;BMP280;36277;32.852;-116.998;2023-02-13T14:09:41;99815.78;;;21.85
45701;BMP280;36277;32.852;-116.998;2023-02-13T14:14:53;99819.69;;;21.76
45701;BMP280;36277;32.852;-116.998;2023-02-13T14:20:27;99819.84;;;21.74
45701;BMP280;36277;32.852;-116.998;2023-02-13T14:23:47;99820.22;;;21.71
45701;BMP280;36277;32.852;-116.998;2023-02-13T14:28:39;99829.03;;;21.67
45701;BMP280;36277;32.852;-116.998;2023-02-13T14:31:17;99830.38;;;21.71
45701;BMP280;36277;32.852;-116.998;2023-02-13T14:34:08;99830.38;;;21.71
45701;BMP280;36277;32.852;-116.998;2023-02-13T14:37:11;99845.41;;;21.60
45701;BMP280;36277;32.852;-116.998;2023-02-13T14:43:18;99850.09;;;21.88
45701;BMP280;36277;32.852;-116.998;2023-02-13T14:45:51;99866.31;;;21.98
45701;BMP280;36277;32.852;-116.998;2023-02-13T14:48:21;99861.44;;;22.08
45701;BMP280;36277;32.852;-116.998;2023-02-13T14:50:52;99864.09;;;22.16
45701;BMP280;36277;32.852;-116.998;2023-02-13T14:53:32;99866.38;;;22.27
45701;BMP280;36277;32.852;-116.998;2023-02-13T14:56:13;99869.38;;;22.40
45701;BMP280;36277;32.852;-116.998;2023-02-13T15:01:27;99872.22;;;22.46
45701;BMP280;36277;32.852;-116.998;2023-02-13T15:04:11;99885.75;;;22.48
45701;BMP280;36277;32.852;-116.998;2023-02-13T15:06:44;99895.03;;;22.47
45701;BMP280;36277;32.852;-116.998;2023-02-13T15:09:29;99902.63;;;22.45
45701;BMP280;36277;32.852;-116.998;2023-02-13T15:11:58;99887.94;;;22.38
45701;BMP280;36277;32.852;-116.998;2023-02-13T15:14:31;99885.88;;;22.40
45701;BMP280;36277;32.852;-116.998;2023-02-13T15:19:36;99901.81;;;22.22
45701;BMP280;36277;32.852;-116.998;2023-02-13T15:22:05;99913.56;;;22.30
45701;BMP280;36277;32.852;-116.998;2023-02-13T15:24:43;99912.72;;;22.30
45701;BMP280;36277;32.852;-116.998;2023-02-13T15:27:20;99908.94;;;22.31
45701;BMP280;36277;32.852;-116.998;2023-02-13T15:30:02;99910.66;;;22.32
45701;BMP280;36277;32.852;-116.998;2023-02-13T15:32:32;99905.31;;;22.30
45701;BMP280;36277;32.852;-116.998;2023-02-13T15:34:59;99910.56;;;22.25
45701;BMP280;36277;32.852;-116.998;2023-02-13T15:37:29;99923.19;;;22.34
45701;BMP280;36277;32.852;-116.998;2023-02-13T15:40:22;99940.19;;;22.38
45701;BMP280;36277;32.852;-116.998;2023-02-13T15:42:50;99943.31;;;22.35
45701;BMP280;36277;32.852;-116.998;2023-02-13T15:45:18;99942.59;;;22.33
45701;BMP280;36277;32.852;-116.998;2023-02-13T15:47:46;99941.25;;;22.29
45701;BMP280;36277;32.852;-116.998;2023-02-13T15:50:23;99935.78;;;22.29
45701;BMP280;36277;32.852;-116.998;2023-02-13T15:52:52;99949.78;;;22.19
45701;BMP280;36277;32.852;-116.998;2023-02-13T15:55:27;99964.44;;;22.34
45701;BMP280;36277;32.852;-116.998;2023-02-13T15:57:57;99969.22;;;22.32
45701;BMP280;36277;32.852;-116.998;2023-02-13T16:00:28;99977.69;;;22.31
45701;BMP280;36277;32.852;-116.998;2023-02-13T16:02:57;99977.69;;;22.31
45701;BMP280;36277;32.852;-116.998;2023-02-13T16:05:26;99988.00;;;22.29
45701;BMP280;36277;32.852;-116.998;2023-02-13T16:07:56;99985.47;;;22.27
45701;BMP280;36277;32.852;-116.998;2023-02-13T16:12:52;99993.88;;;22.26
45701;BMP280;36277;32.852;-116.998;2023-02-13T16:15:20;99987.34;;;22.27
45701;BMP280;36277;32.852;-116.998;2023-02-13T16:17:47;99996.97;;;22.23
45701;BMP280;36277;32.852;-116.998;2023-02-13T16:20:21;99994.25;;;22.23
45701;BMP280;36277;32.852;-116.998;2023-02-13T16:25:33;99993.19;;;22.24
45701;BMP280;36277;32.852;-116.998;2023-02-13T16:28:04;99997.56;;;22.18
45701;BMP280;36277;32.852;-116.998;2023-02-13T16:30:44;99999.06;;;22.21
45701;BMP280;36277;32.852;-116.998;2023-02-13T16:35:48;100017.63;;;22.19
45701;BMP280;36277;32.852;-116.998;2023-02-13T16:43:49;99995.28;;;22.22
45701;BMP280;36277;32.852;-116.998;2023-02-13T16:46:41;99994.75;;;22.26
45701;BMP280;36277;32.852;-116.998;2023-02-13T16:49:18;100001.66;;;22.22
45701;BMP280;36277;32.852;-116.998;2023-02-13T16:51:49;100007.81;;;22.24
45701;BMP280;36277;32.852;-116.998;2023-02-13T16:54:25;100013.31;;;22.24
45701;BMP280;36277;32.852;-116.998;2023-02-13T16:56:56;100011.28;;;22.18
45701;BMP280;36277;32.852;-116.998;2023-02-13T17:04:47;100027.59;;;22.20
45701;BMP280;36277;32.852;-116.998;2023-02-13T17:07:17;100030.75;;;22.17
45701;BMP280;36277;32.852;-116.998;2023-02-13T17:09:43;100024.72;;;22.13
45701;BMP280;36277;32.852;-116.998;2023-02-13T17:12:16;100025.25;;;22.17
45701;BMP280;36277;32.852;-116.998;2023-02-13T17:14:44;100026.63;;;22.13
45701;BMP280;36277;32.852;-116.998;2023-02-13T17:17:21;100024.38;;;22.16